createdAt,value
2022-10-26T00:00:25.828Z,12.19
2022-10-26T00:02:54.896Z,12.15
2022-10-26T00:05:24.032Z,12.15
2022-10-26T00:07:51.644Z,12.42
2022-10-26T00:10:21.671Z,12.60
2022-10-26T00:12:51.715Z,12.67
2022-10-26T00:15:19.595Z,12.64
2022-10-26T00:17:48.451Z,12.52
2022-10-26T00:20:16.375Z,12.47
2022-10-26T00:22:45.264Z,12.38
2022-10-26T00:25:12.780Z,12.29
2022-10-26T00:27:40.344Z,12.43
2022-10-26T00:30:08.950Z,12.47
2022-10-26T00:32:36.538Z,12.65
2022-10-26T00:35:11.855Z,12.78
2022-10-26T00:37:55.404Z,12.97
2022-10-26T00:40:22.940Z,13.08
2022-10-26T00:42:50.843Z,13.16
2022-10-26T00:45:22.185Z,13.30
2022-10-26T00:47:53.904Z,13.31
2022-10-26T00:50:26.067Z,13.32
2022-10-26T00:52:56.467Z,13.20
2022-10-26T00:55:27.808Z,13.29
2022-10-26T00:57:55.885Z,13.26
2022-10-26T01:00:23.636Z,12.93
2022-10-26T01:02:53.672Z,12.70
2022-10-26T01:05:21.685Z,12.84
2022-10-26T01:07:49.956Z,12.77
2022-10-26T01:10:19.189Z,12.95
2022-10-26T01:12:47.077Z,13.36
2022-10-26T01:15:14.967Z,13.51
2022-10-26T01:17:57.251Z,13.31
2022-10-26T01:20:55.843Z,13.19
2022-10-26T01:23:33.020Z,12.93
2022-10-26T01:26:25.721Z,13.00
2022-10-26T01:29:22.101Z,12.94
2022-10-26T01:31:57.880Z,12.87
2022-10-26T01:34:31.991Z,12.86
2022-10-26T01:37:06.484Z,12.71
2022-10-26T01:39:40.620Z,12.90
2022-10-26T01:42:11.289Z,13.08
2022-10-26T01:44:43.324Z,13.01
2022-10-26T01:47:15.670Z,12.97
2022-10-26T01:49:48.047Z,12.88
2022-10-26T01:52:15.579Z,13.01
2022-10-26T01:54:43.092Z,12.90
2022-10-26T01:57:13.825Z,13.24
2022-10-26T02:00:05.474Z,13.63
2022-10-26T02:02:46.204Z,13.60
2022-10-26T02:05:51.707Z,13.49
2022-10-26T02:08:40.527Z,13.73
2022-10-26T02:11:20.415Z,13.62
2022-10-26T02:13:53.517Z,13.85
2022-10-26T02:16:25.956Z,14.10
2022-10-26T02:19:03.586Z,14.03
2022-10-26T02:21:38.164Z,13.79
2022-10-26T02:24:09.508Z,13.87
2022-10-26T02:26:38.253Z,13.60
2022-10-26T02:29:10.594Z,13.51
2022-10-26T02:31:39.524Z,13.19
2022-10-26T02:34:14.327Z,13.19
2022-10-26T02:36:45.825Z,13.23
2022-10-26T02:39:17.381Z,13.50
2022-10-26T02:41:46.808Z,13.50
2022-10-26T02:44:17.813Z,13.59
2022-10-26T02:46:45.922Z,13.59
2022-10-26T02:49:14.912Z,13.59
2022-10-26T02:54:28.139Z,13.55
2022-10-26T02:57:00.745Z,13.27
2022-10-26T02:59:31.599Z,13.04
2022-10-26T03:01:59.424Z,12.91
2022-10-26T03:04:33.097Z,12.88
2022-10-26T03:07:01.392Z,12.80
2022-10-26T03:09:29.360Z,13.10
2022-10-26T03:11:57.037Z,13.40
2022-10-26T03:14:24.616Z,13.27
2022-10-26T03:19:24.729Z,13.75
2022-10-26T03:21:53.602Z,13.76
2022-10-26T03:24:21.140Z,13.59
2022-10-26T03:26:48.673Z,13.68
2022-10-26T03:29:16.167Z,13.69
2022-10-26T03:31:43.747Z,13.52
2022-10-26T03:34:11.272Z,13.47
2022-10-26T03:36:38.785Z,13.60
2022-10-26T03:39:07.698Z,13.14
2022-10-26T03:41:35.200Z,13.21
2022-10-26T03:44:02.778Z,13.62
2022-10-26T03:46:30.354Z,13.53
2022-10-26T03:48:57.885Z,13.38
2022-10-26T03:51:25.413Z,13.50
2022-10-26T03:53:52.946Z,13.43
2022-10-26T03:56:22.253Z,13.41
2022-10-26T03:58:49.780Z,13.57
2022-10-26T04:01:17.339Z,13.63
2022-10-26T04:03:44.926Z,13.65
2022-10-26T04:06:12.476Z,13.71
2022-10-26T04:08:39.973Z,13.63
2022-10-26T04:11:07.584Z,13.83
2022-10-26T04:13:36.494Z,13.87
2022-10-26T04:16:04.072Z,13.62
2022-10-26T04:18:31.593Z,13.43
2022-10-26T04:21:01.985Z,13.35
2022-10-26T04:23:29.533Z,13.26
2022-10-26T04:25:57.058Z,13.13
2022-10-26T04:28:24.591Z,13.19
2022-10-26T04:30:53.440Z,13.18
2022-10-26T04:33:20.966Z,13.09
2022-10-26T04:35:48.475Z,13.10
2022-10-26T04:38:15.997Z,13.05
2022-10-26T04:40:43.526Z,12.88
2022-10-26T04:43:11.789Z,12.83
2022-10-26T04:45:39.303Z,12.70
2022-10-26T04:48:11.060Z,12.85
2022-10-26T04:50:39.595Z,13.09
2022-10-26T04:53:08.008Z,13.38
2022-10-26T04:55:35.944Z,13.05
2022-10-26T04:58:03.514Z,12.86
2022-10-26T05:00:32.677Z,12.81
2022-10-26T05:03:00.800Z,13.01
2022-10-26T05:05:30.372Z,13.50
2022-10-26T05:07:58.448Z,13.45
2022-10-26T05:10:26.636Z,13.05
2022-10-26T05:12:54.985Z,13.06
2022-10-26T05:15:22.768Z,13.09
2022-10-26T05:17:56.384Z,13.11
2022-10-26T05:20:29.223Z,13.26
2022-10-26T05:22:58.618Z,13.61
2022-10-26T05:25:26.304Z,13.83
2022-10-26T05:27:57.848Z,13.60
2022-10-26T05:30:25.404Z,13.79
2022-10-26T05:32:55.502Z,13.76
2022-10-26T05:35:23.015Z,13.86
2022-10-26T05:37:51.036Z,13.52
2022-10-26T05:40:20.564Z,13.62
2022-10-26T05:42:48.539Z,13.77
2022-10-26T05:45:18.038Z,13.80
2022-10-26T05:47:46.594Z,13.57
2022-10-26T05:50:14.860Z,13.41
2022-10-26T05:52:43.236Z,13.28
2022-10-26T05:55:15.269Z,13.19
2022-10-26T05:57:45.276Z,13.28
2022-10-26T06:00:17.832Z,13.26
2022-10-26T06:02:58.661Z,13.11
2022-10-26T06:05:29.212Z,13.08
2022-10-26T06:07:57.389Z,12.91
2022-10-26T06:10:25.733Z,12.88
2022-10-26T06:12:55.368Z,13.01
2022-10-26T06:15:23.729Z,13.08
2022-10-26T06:18:01.697Z,12.85
2022-10-26T06:20:45.107Z,12.98
2022-10-26T06:23:31.350Z,12.68
2022-10-26T06:26:06.406Z,12.53
2022-10-26T06:28:47.363Z,12.44
2022-10-26T06:31:17.749Z,12.38
2022-10-26T06:33:45.860Z,12.43
2022-10-26T06:36:23.024Z,12.39
2022-10-26T06:38:55.170Z,12.34
2022-10-26T06:41:24.152Z,12.43
2022-10-26T06:43:53.949Z,12.53
2022-10-26T06:46:31.056Z,12.71
2022-10-26T06:49:06.591Z,12.67
2022-10-26T06:51:42.201Z,12.87
2022-10-26T06:54:19.753Z,12.94
2022-10-26T06:56:48.242Z,13.17
2022-10-26T06:59:22.588Z,13.09
2022-10-26T07:01:50.164Z,13.25
2022-10-26T07:04:17.821Z,13.50
2022-10-26T07:06:45.328Z,13.55
2022-10-26T07:09:12.838Z,13.19
2022-10-26T07:11:40.356Z,13.27
2022-10-26T07:14:08.452Z,13.06
2022-10-26T07:16:37.388Z,12.91
2022-10-26T07:19:04.891Z,12.73
2022-10-26T07:21:32.419Z,12.87
2022-10-26T07:23:59.959Z,13.08
2022-10-26T07:26:28.051Z,13.21
2022-10-26T07:28:55.790Z,13.45
2022-10-26T07:31:23.292Z,13.70
2022-10-26T07:33:54.651Z,13.75
2022-10-26T07:36:22.168Z,14.12
2022-10-26T07:38:52.679Z,14.38
2022-10-26T07:41:20.958Z,14.22
2022-10-26T07:43:50.666Z,14.04
2022-10-26T07:46:18.452Z,14.21
2022-10-26T07:48:46.074Z,13.89
2022-10-26T07:51:14.967Z,14.02
2022-10-26T07:53:42.553Z,14.15
2022-10-26T07:56:11.659Z,14.34
2022-10-26T07:58:39.648Z,14.56
2022-10-26T08:01:08.332Z,14.99
2022-10-26T08:03:36.035Z,15.16
2022-10-26T08:06:04.963Z,15.56
2022-10-26T08:08:34.157Z,15.75
2022-10-26T08:11:01.789Z,15.84
2022-10-26T08:13:29.340Z,15.63
2022-10-26T08:16:00.126Z,15.47
2022-10-26T08:18:28.116Z,15.26
2022-10-26T08:21:01.859Z,15.43
2022-10-26T08:23:39.379Z,15.74
2022-10-26T08:26:07.242Z,15.21
2022-10-26T08:28:34.857Z,14.74
2022-10-26T08:31:02.377Z,14.60
2022-10-26T08:33:29.923Z,14.65
2022-10-26T08:35:57.900Z,14.42
2022-10-26T08:38:25.635Z,14.61
2022-10-26T08:40:55.576Z,14.68
2022-10-26T08:43:29.296Z,14.57
2022-10-26T08:46:04.095Z,14.13
2022-10-26T08:48:35.401Z,14.18
2022-10-26T08:51:08.809Z,14.12
2022-10-26T08:53:42.898Z,14.48
2022-10-26T08:56:18.298Z,14.48
2022-10-26T08:58:52.475Z,14.27
2022-10-26T09:01:20.234Z,14.55
2022-10-26T09:03:47.838Z,14.69
2022-10-26T09:06:26.764Z,15.01
2022-10-26T09:09:03.877Z,15.16
2022-10-26T09:12:03.022Z,15.41
2022-10-26T09:14:40.619Z,15.32
2022-10-26T09:17:14.428Z,15.67
2022-10-26T09:20:01.213Z,15.82
2022-10-26T09:22:34.931Z,15.65
2022-10-26T09:25:13.685Z,15.84
2022-10-26T09:27:46.518Z,16.01
2022-10-26T09:30:16.471Z,15.85
2022-10-26T09:32:48.031Z,15.98
2022-10-26T09:35:19.921Z,16.16
2022-10-26T09:37:52.611Z,16.35
2022-10-26T09:40:26.874Z,16.35
2022-10-26T09:43:01.942Z,16.29
2022-10-26T09:45:32.498Z,16.68
2022-10-26T09:48:06.745Z,16.75
2022-10-26T09:50:37.039Z,16.66
2022-10-26T09:53:05.565Z,16.71
2022-10-26T09:55:35.564Z,16.63
2022-10-26T09:58:07.955Z,16.82
2022-10-26T10:03:20.671Z,17.29
2022-10-26T10:05:52.774Z,17.01
2022-10-26T10:08:23.072Z,17.29
2022-10-26T10:10:58.551Z,17.07
2022-10-26T10:13:30.083Z,16.88
2022-10-26T10:16:04.529Z,16.91
2022-10-26T10:18:32.946Z,17.23
2022-10-26T10:21:01.152Z,17.51
2022-10-26T10:23:32.259Z,17.40
2022-10-26T10:26:02.066Z,18.48
2022-10-26T10:28:31.433Z,18.82
2022-10-26T10:31:00.871Z,18.99
2022-10-26T10:33:40.399Z,19.51
2022-10-26T10:36:11.492Z,19.19
2022-10-26T10:38:42.235Z,19.36
2022-10-26T10:41:22.064Z,19.51
2022-10-26T10:43:54.015Z,20.12
2022-10-26T10:46:24.194Z,20.30
2022-10-26T10:48:56.888Z,20.60
2022-10-26T10:51:26.698Z,20.72
2022-10-26T10:53:56.714Z,20.76
2022-10-26T10:56:35.308Z,20.58
2022-10-26T10:59:25.339Z,20.09
2022-10-26T11:02:07.889Z,19.90
2022-10-26T11:04:50.097Z,20.09
2022-10-26T11:07:19.563Z,19.99
2022-10-26T11:09:49.753Z,19.86
2022-10-26T11:12:22.579Z,19.56
2022-10-26T11:14:55.723Z,19.24
2022-10-26T11:17:26.643Z,19.30
2022-10-26T11:19:59.801Z,18.77
2022-10-26T11:22:31.740Z,19.20
2022-10-26T11:25:04.572Z,19.04
2022-10-26T11:27:40.401Z,18.83
2022-10-26T11:30:16.106Z,19.17
2022-10-26T11:32:48.133Z,19.58
2022-10-26T11:35:19.664Z,19.82
2022-10-26T11:37:53.210Z,19.26
2022-10-26T11:40:29.629Z,19.26
2022-10-26T11:43:08.100Z,19.25
2022-10-26T11:45:40.709Z,19.10
2022-10-26T11:48:17.556Z,19.21
2022-10-26T11:50:48.459Z,19.81
2022-10-26T11:53:18.763Z,19.85
2022-10-26T11:55:51.209Z,20.21
2022-10-26T11:58:19.544Z,19.87
2022-10-26T12:00:54.345Z,20.10
2022-10-26T12:03:26.996Z,19.98
2022-10-26T12:05:54.624Z,19.40
2022-10-26T12:08:27.567Z,19.21
2022-10-26T12:11:04.637Z,18.73
2022-10-26T12:13:37.181Z,18.87
2022-10-26T12:16:14.559Z,18.34
2022-10-26T12:18:56.132Z,18.31
2022-10-26T12:21:28.377Z,18.42
2022-10-26T12:23:58.441Z,18.61
2022-10-26T12:26:51.968Z,19.67
2022-10-26T12:29:46.596Z,19.88
2022-10-26T12:32:51.075Z,19.87
2022-10-26T12:35:36.434Z,19.57
2022-10-26T12:38:50.737Z,20.02
2022-10-26T12:41:26.510Z,19.43
2022-10-26T12:44:24.355Z,19.81
2022-10-26T12:46:53.246Z,19.79
2022-10-26T12:50:00.247Z,20.33
2022-10-26T12:52:34.838Z,21.00
2022-10-26T12:55:39.159Z,20.78
2022-10-26T12:58:33.468Z,20.62
2022-10-26T13:01:34.591Z,21.16
2022-10-26T13:04:32.179Z,20.69
2022-10-26T13:07:17.651Z,20.48
2022-10-26T13:09:47.356Z,20.45
2022-10-26T13:12:15.225Z,20.26
2022-10-26T13:14:57.669Z,20.44
2022-10-26T13:17:27.443Z,20.56
2022-10-26T13:20:01.525Z,20.33
2022-10-26T13:22:30.044Z,20.52
2022-10-26T13:25:01.678Z,20.46
2022-10-26T13:27:43.076Z,20.89
2022-10-26T13:30:48.133Z,20.71
2022-10-26T13:33:25.339Z,20.53
2022-10-26T13:35:57.181Z,20.38
2022-10-26T13:38:30.799Z,20.16
2022-10-26T13:41:07.216Z,20.25
2022-10-26T13:43:35.313Z,20.20
2022-10-26T13:46:04.891Z,20.19
2022-10-26T13:48:39.657Z,20.46
2022-10-26T13:51:20.676Z,20.23
2022-10-26T13:53:52.551Z,20.04
2022-10-26T13:56:28.290Z,19.87
2022-10-26T13:59:01.234Z,19.54
2022-10-26T14:01:29.608Z,19.29
2022-10-26T14:03:58.308Z,19.26
2022-10-26T14:06:33.151Z,19.58
2022-10-26T14:09:04.274Z,19.86
2022-10-26T14:11:36.736Z,19.83
2022-10-26T14:14:05.435Z,19.89
2022-10-26T14:16:35.292Z,19.75
2022-10-26T14:19:02.850Z,19.65
2022-10-26T14:21:31.761Z,19.85
2022-10-26T14:24:04.126Z,19.42
2022-10-26T14:26:39.648Z,19.54
2022-10-26T14:29:16.581Z,19.76
2022-10-26T14:31:44.172Z,20.01
2022-10-26T14:34:13.523Z,19.80
2022-10-26T14:36:46.508Z,19.95
2022-10-26T14:39:24.830Z,20.04
2022-10-26T14:41:55.186Z,19.78
2022-10-26T14:44:25.131Z,19.54
2022-10-26T14:46:54.377Z,19.56
2022-10-26T14:49:24.149Z,19.40
2022-10-26T14:51:58.319Z,19.68
2022-10-26T14:54:27.847Z,19.83
2022-10-26T14:56:55.794Z,19.61
2022-10-26T14:59:26.564Z,19.56
2022-10-26T15:01:55.928Z,19.82
2022-10-26T15:04:31.217Z,19.66
2022-10-26T15:07:18.888Z,19.39
2022-10-26T15:09:47.701Z,19.27
2022-10-26T15:12:26.494Z,18.71
2022-10-26T15:14:54.676Z,18.69
2022-10-26T15:17:27.505Z,18.46
2022-10-26T15:19:56.532Z,18.50
2022-10-26T15:22:32.078Z,18.45
2022-10-26T15:25:03.278Z,18.41
2022-10-26T15:27:31.424Z,17.94
2022-10-26T15:30:19.145Z,17.56
2022-10-26T15:32:47.498Z,17.55
2022-10-26T15:35:31.235Z,17.81
2022-10-26T15:38:00.950Z,17.91
2022-10-26T15:40:30.790Z,17.82
2022-10-26T15:43:01.310Z,17.69
2022-10-26T15:45:32.873Z,17.50
2022-10-26T15:48:16.783Z,17.35
2022-10-26T15:50:44.305Z,17.43
2022-10-26T15:53:19.575Z,17.35
2022-10-26T15:55:47.416Z,17.37
2022-10-26T15:58:15.745Z,17.53
2022-10-26T16:00:43.619Z,17.47
2022-10-26T16:03:15.491Z,17.75
2022-10-26T16:05:43.033Z,17.76
2022-10-26T16:08:17.964Z,17.53
2022-10-26T16:10:46.903Z,17.40
2022-10-26T16:13:15.234Z,17.39
2022-10-26T16:15:43.309Z,17.43
2022-10-26T16:18:10.831Z,17.51
2022-10-26T16:20:38.481Z,17.76
2022-10-26T16:23:06.650Z,17.70
2022-10-26T16:25:41.066Z,17.83
2022-10-26T16:28:10.399Z,17.97
2022-10-26T16:30:37.991Z,18.19
2022-10-26T16:33:05.553Z,18.30
2022-10-26T16:35:33.112Z,18.43
2022-10-26T16:38:00.610Z,18.37
2022-10-26T16:40:28.163Z,18.10
2022-10-26T16:42:57.011Z,17.75
2022-10-26T16:45:24.528Z,17.56
2022-10-26T16:47:52.282Z,17.67
2022-10-26T16:50:22.050Z,17.43
2022-10-26T16:52:49.563Z,17.50
2022-10-26T16:55:17.248Z,17.57
2022-10-26T16:57:44.754Z,17.83
2022-10-26T17:00:14.276Z,17.75
2022-10-26T17:02:41.864Z,17.78
2022-10-26T17:05:09.718Z,17.81
2022-10-26T17:07:37.234Z,17.88
2022-10-26T17:10:05.463Z,17.77
2022-10-26T17:12:33.299Z,17.72
2022-10-26T17:15:01.462Z,17.87
2022-10-26T17:17:30.402Z,18.05
2022-10-26T17:19:58.339Z,18.12
2022-10-26T17:22:25.866Z,17.95
2022-10-26T17:24:53.378Z,18.13
2022-10-26T17:27:21.180Z,17.85
2022-10-26T17:29:48.674Z,17.80
2022-10-26T17:32:17.225Z,17.87
2022-10-26T17:34:46.059Z,17.53
2022-10-26T17:37:13.588Z,17.60
2022-10-26T17:39:41.078Z,17.91
2022-10-26T17:42:08.639Z,17.94
2022-10-26T17:44:38.906Z,17.97
2022-10-26T17:47:06.529Z,18.03
2022-10-26T17:49:36.174Z,18.16
2022-10-26T17:52:06.545Z,18.14
2022-10-26T17:54:34.058Z,18.20
2022-10-26T17:57:01.948Z,18.24
2022-10-26T17:59:29.593Z,18.13
2022-10-26T18:01:57.212Z,18.20
2022-10-26T18:04:24.913Z,18.30
2022-10-26T18:06:52.469Z,18.26
2022-10-26T18:09:21.315Z,18.22
2022-10-26T18:11:50.808Z,18.13
2022-10-26T18:14:21.161Z,18.17
2022-10-26T18:16:48.709Z,18.28
2022-10-26T18:19:16.224Z,18.31
2022-10-26T18:21:43.723Z,18.23
2022-10-26T18:24:12.016Z,18.17
2022-10-26T18:26:40.952Z,18.13
2022-10-26T18:29:08.481Z,18.12
2022-10-26T18:31:35.985Z,18.14
2022-10-26T18:34:05.424Z,18.06
2022-10-26T18:36:33.475Z,17.88
2022-10-26T18:39:01.317Z,17.59
2022-10-26T18:41:29.345Z,17.32
2022-10-26T18:43:59.796Z,17.20
2022-10-26T18:46:29.411Z,16.82
2022-10-26T18:48:58.113Z,16.74
2022-10-26T18:51:28.897Z,16.83
2022-10-26T18:53:57.933Z,17.02
2022-10-26T18:56:25.856Z,17.10
2022-10-26T18:58:56.030Z,17.28
2022-10-26T19:01:27.003Z,17.39
2022-10-26T19:03:55.874Z,17.35
2022-10-26T19:06:25.036Z,17.23
2022-10-26T19:08:53.339Z,17.19
2022-10-26T19:11:23.244Z,17.09
2022-10-26T19:13:52.720Z,16.92
2022-10-26T19:16:40.703Z,16.83
2022-10-26T19:19:10.855Z,16.36
2022-10-26T19:21:38.702Z,16.38
2022-10-26T19:24:12.867Z,16.57
2022-10-26T19:26:43.482Z,16.65
2022-10-26T19:29:14.673Z,16.51
2022-10-26T19:31:43.097Z,16.38
2022-10-26T19:34:13.287Z,16.26
2022-10-26T19:36:44.083Z,16.31
2022-10-26T19:39:12.559Z,16.32
2022-10-26T19:41:40.066Z,16.32
2022-10-26T19:44:07.890Z,16.26
2022-10-26T19:46:35.557Z,16.24
2022-10-26T19:49:03.382Z,16.12
2022-10-26T19:51:33.159Z,16.06
2022-10-26T19:54:03.750Z,15.71
2022-10-26T19:56:32.181Z,15.43
2022-10-26T19:58:59.772Z,15.04
2022-10-26T20:01:27.626Z,14.90
2022-10-26T20:03:55.478Z,14.94
2022-10-26T20:06:23.001Z,15.02
2022-10-26T20:08:51.908Z,15.19
2022-10-26T20:11:19.830Z,15.13
2022-10-26T20:13:48.516Z,15.06
2022-10-26T20:16:17.476Z,15.09
2022-10-26T20:18:47.892Z,15.55
2022-10-26T20:21:17.075Z,15.78
2022-10-26T20:23:45.299Z,15.93
2022-10-26T20:26:18.432Z,16.00
2022-10-26T20:28:48.090Z,15.97
2022-10-26T20:31:15.837Z,15.94
2022-10-26T20:33:43.541Z,15.91
2022-10-26T20:36:11.151Z,15.76
2022-10-26T20:38:40.235Z,15.75
2022-10-26T20:41:11.654Z,15.85
2022-10-26T20:43:41.859Z,15.83
2022-10-26T20:46:11.667Z,15.80
2022-10-26T20:48:39.741Z,15.72
2022-10-26T20:51:25.286Z,15.67
2022-10-26T20:54:04.520Z,15.60
2022-10-26T20:56:34.270Z,15.46
2022-10-26T20:59:04.867Z,15.51
2022-10-26T21:01:33.847Z,15.38
2022-10-26T21:04:03.077Z,15.30
2022-10-26T21:06:32.135Z,15.17
2022-10-26T21:08:59.632Z,15.21
2022-10-26T21:11:27.179Z,15.15
2022-10-26T21:13:55.367Z,15.19
2022-10-26T21:16:24.301Z,15.23
2022-10-26T21:18:51.812Z,15.07
2022-10-26T21:21:19.365Z,14.77
2022-10-26T21:23:46.880Z,14.94
2022-10-26T21:26:14.445Z,14.85
2022-10-26T21:28:45.643Z,15.09
2022-10-26T21:31:15.185Z,15.11
2022-10-26T21:33:44.885Z,15.30
2022-10-26T21:36:13.376Z,15.14
2022-10-26T21:38:42.122Z,15.28
2022-10-26T21:41:11.546Z,15.29
2022-10-26T21:43:40.383Z,15.22
2022-10-26T21:46:09.492Z,15.32
2022-10-26T21:48:37.649Z,15.27
2022-10-26T21:51:08.498Z,15.31
2022-10-26T21:53:36.058Z,15.26
2022-10-26T21:56:05.995Z,15.20
2022-10-26T21:58:33.664Z,15.02
2022-10-26T22:01:08.415Z,14.79
2022-10-26T22:03:36.585Z,14.74
2022-10-26T22:06:06.355Z,14.56
2022-10-26T22:08:34.330Z,14.79
2022-10-26T22:11:06.467Z,14.99
2022-10-26T22:13:34.378Z,15.20
2022-10-26T22:16:04.301Z,15.20
2022-10-26T22:18:34.494Z,15.18
2022-10-26T22:21:02.231Z,15.06
2022-10-26T22:23:33.775Z,14.92
2022-10-26T22:26:04.811Z,14.59
2022-10-26T22:28:36.264Z,14.56
2022-10-26T22:31:05.952Z,14.73
2022-10-26T22:33:33.950Z,14.77
2022-10-26T22:36:05.171Z,14.74
2022-10-26T22:38:34.236Z,14.68
2022-10-26T22:41:01.792Z,14.43
2022-10-26T22:43:29.700Z,14.47
2022-10-26T22:46:01.499Z,14.48
2022-10-26T22:48:29.251Z,14.23
2022-10-26T22:50:57.113Z,14.27
2022-10-26T22:53:25.252Z,14.24
2022-10-26T22:55:54.092Z,14.41
2022-10-26T22:58:21.675Z,14.48
2022-10-26T23:00:49.325Z,14.39
2022-10-26T23:03:16.848Z,14.44
2022-10-26T23:05:48.005Z,14.41
2022-10-26T23:08:15.548Z,14.38
2022-10-26T23:10:43.078Z,14.31
2022-10-26T23:13:11.929Z,14.25
2022-10-26T23:15:39.487Z,14.33
2022-10-26T23:18:07.054Z,14.28
2022-10-26T23:20:34.655Z,14.18
2022-10-26T23:23:02.969Z,13.93
2022-10-26T23:25:30.474Z,13.86
2022-10-26T23:27:57.994Z,13.57
2022-10-26T23:30:26.884Z,13.68
2022-10-26T23:32:56.404Z,13.78
2022-10-26T23:35:24.069Z,13.79
2022-10-26T23:37:51.573Z,13.81
2022-10-26T23:40:19.119Z,13.89
2022-10-26T23:42:46.667Z,13.99
2022-10-26T23:45:14.343Z,13.93
2022-10-26T23:47:43.219Z,13.84
2022-10-26T23:50:11.185Z,13.72
2022-10-26T23:52:38.694Z,13.59
2022-10-26T23:55:06.957Z,13.77
2022-10-26T23:57:34.469Z,13.79
